sensor_id;sensor_type;location;lat;lon;timestamp;P1;durP1;ratioP1;P2;durP2;ratioP2
16254;SDS011;8235;52.198;9.904;2022-12-20T00:01:53;17.33;;;11.63;;
16254;SDS011;8235;52.198;9.904;2022-12-20T00:04:20;21.13;;;12.13;;
16254;SDS011;8235;52.198;9.904;2022-12-20T00:06:46;19.30;;;11.73;;
16254;SDS011;8235;52.198;9.904;2022-12-20T00:09:13;16.00;;;11.40;;
16254;SDS011;8235;52.198;9.904;2022-12-20T00:11:39;19.57;;;11.73;;
16254;SDS011;8235;52.198;9.904;2022-12-20T00:14:08;18.67;;;13.00;;
16254;SDS011;8235;52.198;9.904;2022-12-20T00:16:35;19.37;;;12.20;;
16254;SDS011;8235;52.198;9.904;2022-12-20T00:19:03;19.87;;;12.37;;
16254;SDS011;8235;52.198;9.904;2022-12-20T00:21:32;19.47;;;11.63;;
16254;SDS011;8235;52.198;9.904;2022-12-20T00:24:00;21.00;;;11.73;;
16254;SDS011;8235;52.198;9.904;2022-12-20T00:26:28;16.10;;;12.00;;
16254;SDS011;8235;52.198;9.904;2022-12-20T00:28:55;16.97;;;11.60;;
16254;SDS011;8235;52.198;9.904;2022-12-20T00:31:24;17.53;;;11.80;;
16254;SDS011;8235;52.198;9.904;2022-12-20T00:33:53;17.60;;;11.70;;
16254;SDS011;8235;52.198;9.904;2022-12-20T00:36:21;19.93;;;11.83;;
16254;SDS011;8235;52.198;9.904;2022-12-20T00:38:50;20.00;;;12.10;;
16254;SDS011;8235;52.198;9.904;2022-12-20T00:41:18;16.37;;;11.30;;
16254;SDS011;8235;52.198;9.904;2022-12-20T00:43:45;21.40;;;11.40;;
16254;SDS011;8235;52.198;9.904;2022-12-20T00:46:12;18.57;;;11.50;;
16254;SDS011;8235;52.198;9.904;2022-12-20T00:48:41;15.43;;;11.07;;
16254;SDS011;8235;52.198;9.904;2022-12-20T00:51:09;16.90;;;11.07;;
16254;SDS011;8235;52.198;9.904;2022-12-20T00:53:37;17.03;;;10.40;;
16254;SDS011;8235;52.198;9.904;2022-12-20T00:56:05;19.17;;;10.20;;
16254;SDS011;8235;52.198;9.904;2022-12-20T00:58:32;21.93;;;11.60;;
16254;SDS011;8235;52.198;9.904;2022-12-20T01:00:59;17.23;;;10.80;;
16254;SDS011;8235;52.198;9.904;2022-12-20T01:03:26;16.53;;;10.90;;
16254;SDS011;8235;52.198;9.904;2022-12-20T01:05:55;13.60;;;10.10;;
16254;SDS011;8235;52.198;9.904;2022-12-20T01:08:23;13.63;;;10.40;;
16254;SDS011;8235;52.198;9.904;2022-12-20T01:10:56;17.43;;;11.23;;
16254;SDS011;8235;52.198;9.904;2022-12-20T01:13:24;17.00;;;10.63;;
16254;SDS011;8235;52.198;9.904;2022-12-20T01:15:50;15.67;;;10.63;;
16254;SDS011;8235;52.198;9.904;2022-12-20T01:18:17;15.20;;;10.53;;
16254;SDS011;8235;52.198;9.904;2022-12-20T01:20:44;13.27;;;10.00;;
16254;SDS011;8235;52.198;9.904;2022-12-20T01:23:12;14.83;;;10.80;;
16254;SDS011;8235;52.198;9.904;2022-12-20T01:25:38;17.23;;;11.37;;
16254;SDS011;8235;52.198;9.904;2022-12-20T01:28:04;16.67;;;11.50;;
16254;SDS011;8235;52.198;9.904;2022-12-20T01:30:31;17.00;;;10.97;;
16254;SDS011;8235;52.198;9.904;2022-12-20T01:32:57;17.90;;;12.10;;
16254;SDS011;8235;52.198;9.904;2022-12-20T01:35:24;21.63;;;12.20;;
16254;SDS011;8235;52.198;9.904;2022-12-20T01:37:50;19.80;;;11.63;;
16254;SDS011;8235;52.198;9.904;2022-12-20T01:40:18;18.40;;;11.80;;
16254;SDS011;8235;52.198;9.904;2022-12-20T01:42:44;20.93;;;12.17;;
16254;SDS011;8235;52.198;9.904;2022-12-20T01:45:12;15.57;;;11.20;;
16254;SDS011;8235;52.198;9.904;2022-12-20T01:47:48;20.83;;;11.67;;
16254;SDS011;8235;52.198;9.904;2022-12-20T01:50:15;18.80;;;12.57;;
16254;SDS011;8235;52.198;9.904;2022-12-20T01:52:42;15.13;;;11.00;;
16254;SDS011;8235;52.198;9.904;2022-12-20T01:55:13;19.37;;;12.47;;
16254;SDS011;8235;52.198;9.904;2022-12-20T01:57:44;17.70;;;11.53;;
16254;SDS011;8235;52.198;9.904;2022-12-20T02:00:15;17.10;;;11.30;;
16254;SDS011;8235;52.198;9.904;2022-12-20T02:02:43;18.27;;;11.37;;
16254;SDS011;8235;52.198;9.904;2022-12-20T02:05:11;17.97;;;10.57;;
16254;SDS011;8235;52.198;9.904;2022-12-20T02:07:39;17.03;;;11.43;;
16254;SDS011;8235;52.198;9.904;2022-12-20T02:10:09;17.30;;;10.93;;
16254;SDS011;8235;52.198;9.904;2022-12-20T02:12:38;15.10;;;9.47;;
16254;SDS011;8235;52.198;9.904;2022-12-20T02:15:13;17.23;;;10.17;;
16254;SDS011;8235;52.198;9.904;2022-12-20T02:17:53;18.13;;;10.53;;
16254;SDS011;8235;52.198;9.904;2022-12-20T02:20:32;16.23;;;10.07;;
16254;SDS011;8235;52.198;9.904;2022-12-20T02:23:31;14.97;;;9.70;;
16254;SDS011;8235;52.198;9.904;2022-12-20T02:26:18;12.07;;;9.00;;
16254;SDS011;8235;52.198;9.904;2022-12-20T02:29:06;12.73;;;9.20;;
16254;SDS011;8235;52.198;9.904;2022-12-20T02:31:48;14.30;;;9.30;;
16254;SDS011;8235;52.198;9.904;2022-12-20T02:34:20;13.40;;;9.27;;
16254;SDS011;8235;52.198;9.904;2022-12-20T02:36:49;13.37;;;9.30;;
16254;SDS011;8235;52.198;9.904;2022-12-20T02:39:15;12.87;;;9.13;;
16254;SDS011;8235;52.198;9.904;2022-12-20T02:41:42;13.03;;;9.03;;
16254;SDS011;8235;52.198;9.904;2022-12-20T02:44:13;15.30;;;9.67;;
16254;SDS011;8235;52.198;9.904;2022-12-20T02:47:03;12.33;;;8.87;;
16254;SDS011;8235;52.198;9.904;2022-12-20T02:49:33;14.20;;;9.80;;
16254;SDS011;8235;52.198;9.904;2022-12-20T02:52:05;12.07;;;8.90;;
16254;SDS011;8235;52.198;9.904;2022-12-20T02:54:34;15.13;;;9.10;;
16254;SDS011;8235;52.198;9.904;2022-12-20T02:57:03;17.60;;;9.80;;
16254;SDS011;8235;52.198;9.904;2022-12-20T02:59:35;11.03;;;8.87;;
16254;SDS011;8235;52.198;9.904;2022-12-20T03:02:07;12.30;;;8.63;;
16254;SDS011;8235;52.198;9.904;2022-12-20T03:04:36;11.73;;;8.47;;
16254;SDS011;8235;52.198;9.904;2022-12-20T03:07:06;12.90;;;8.10;;
16254;SDS011;8235;52.198;9.904;2022-12-20T03:09:35;13.37;;;8.30;;
16254;SDS011;8235;52.198;9.904;2022-12-20T03:12:07;12.23;;;8.73;;
16254;SDS011;8235;52.198;9.904;2022-12-20T03:14:35;10.70;;;7.70;;
16254;SDS011;8235;52.198;9.904;2022-12-20T03:17:02;14.13;;;9.03;;
16254;SDS011;8235;52.198;9.904;2022-12-20T03:19:30;13.20;;;8.57;;
16254;SDS011;8235;52.198;9.904;2022-12-20T03:21:57;12.57;;;8.50;;
16254;SDS011;8235;52.198;9.904;2022-12-20T03:24:24;12.73;;;9.13;;
16254;SDS011;8235;52.198;9.904;2022-12-20T03:26:51;14.27;;;10.40;;
16254;SDS011;8235;52.198;9.904;2022-12-20T03:29:17;12.77;;;8.83;;
16254;SDS011;8235;52.198;9.904;2022-12-20T03:31:44;13.60;;;9.87;;
16254;SDS011;8235;52.198;9.904;2022-12-20T03:34:10;13.57;;;9.47;;
16254;SDS011;8235;52.198;9.904;2022-12-20T03:36:38;14.57;;;10.00;;
16254;SDS011;8235;52.198;9.904;2022-12-20T03:39:04;14.10;;;9.70;;
16254;SDS011;8235;52.198;9.904;2022-12-20T03:41:31;14.00;;;9.80;;
16254;SDS011;8235;52.198;9.904;2022-12-20T03:43:57;16.27;;;10.23;;
16254;SDS011;8235;52.198;9.904;2022-12-20T03:46:24;13.53;;;9.40;;
16254;SDS011;8235;52.198;9.904;2022-12-20T03:48:51;11.93;;;8.77;;
16254;SDS011;8235;52.198;9.904;2022-12-20T03:51:18;11.97;;;9.57;;
16254;SDS011;8235;52.198;9.904;2022-12-20T03:53:46;11.67;;;8.70;;
16254;SDS011;8235;52.198;9.904;2022-12-20T03:56:12;15.20;;;9.70;;
16254;SDS011;8235;52.198;9.904;2022-12-20T03:58:39;13.27;;;9.17;;
16254;SDS011;8235;52.198;9.904;2022-12-20T04:01:15;12.23;;;8.67;;
16254;SDS011;8235;52.198;9.904;2022-12-20T04:03:43;12.57;;;9.13;;
16254;SDS011;8235;52.198;9.904;2022-12-20T04:06:10;10.80;;;8.83;;
16254;SDS011;8235;52.198;9.904;2022-12-20T04:08:36;16.30;;;9.73;;
16254;SDS011;8235;52.198;9.904;2022-12-20T04:11:04;13.03;;;9.17;;
16254;SDS011;8235;52.198;9.904;2022-12-20T04:13:43;15.20;;;9.67;;
16254;SDS011;8235;52.198;9.904;2022-12-20T04:16:10;16.87;;;10.10;;
16254;SDS011;8235;52.198;9.904;2022-12-20T04:18:37;14.23;;;10.20;;
16254;SDS011;8235;52.198;9.904;2022-12-20T04:21:04;14.60;;;10.43;;
16254;SDS011;8235;52.198;9.904;2022-12-20T04:23:32;14.83;;;10.20;;
16254;SDS011;8235;52.198;9.904;2022-12-20T04:25:59;14.97;;;10.60;;
16254;SDS011;8235;52.198;9.904;2022-12-20T04:28:27;14.60;;;10.07;;
16254;SDS011;8235;52.198;9.904;2022-12-20T04:30:54;14.57;;;10.20;;
16254;SDS011;8235;52.198;9.904;2022-12-20T04:33:21;14.83;;;10.73;;
16254;SDS011;8235;52.198;9.904;2022-12-20T04:35:48;15.50;;;10.50;;
16254;SDS011;8235;52.198;9.904;2022-12-20T04:38:15;13.57;;;9.80;;
16254;SDS011;8235;52.198;9.904;2022-12-20T04:40:42;13.53;;;9.90;;
16254;SDS011;8235;52.198;9.904;2022-12-20T04:43:08;13.00;;;8.73;;
16254;SDS011;8235;52.198;9.904;2022-12-20T04:45:36;13.60;;;9.63;;
16254;SDS011;8235;52.198;9.904;2022-12-20T04:48:03;12.50;;;8.70;;
16254;SDS011;8235;52.198;9.904;2022-12-20T04:50:30;15.37;;;9.17;;
16254;SDS011;8235;52.198;9.904;2022-12-20T04:52:56;12.27;;;9.10;;
16254;SDS011;8235;52.198;9.904;2022-12-20T04:55:41;12.67;;;8.70;;
16254;SDS011;8235;52.198;9.904;2022-12-20T04:58:07;13.13;;;9.97;;
16254;SDS011;8235;52.198;9.904;2022-12-20T05:00:34;14.13;;;9.83;;
16254;SDS011;8235;52.198;9.904;2022-12-20T05:03:02;15.13;;;9.77;;
16254;SDS011;8235;52.198;9.904;2022-12-20T05:05:28;10.93;;;8.60;;
16254;SDS011;8235;52.198;9.904;2022-12-20T05:07:55;14.30;;;9.23;;
16254;SDS011;8235;52.198;9.904;2022-12-20T05:10:21;11.27;;;8.27;;
16254;SDS011;8235;52.198;9.904;2022-12-20T05:12:48;10.53;;;8.37;;
16254;SDS011;8235;52.198;9.904;2022-12-20T05:15:15;12.93;;;9.57;;
16254;SDS011;8235;52.198;9.904;2022-12-20T05:17:41;12.07;;;8.40;;
16254;SDS011;8235;52.198;9.904;2022-12-20T05:20:10;12.07;;;8.30;;
16254;SDS011;8235;52.198;9.904;2022-12-20T05:22:37;11.13;;;7.57;;
16254;SDS011;8235;52.198;9.904;2022-12-20T05:25:21;10.97;;;7.73;;
16254;SDS011;8235;52.198;9.904;2022-12-20T05:28:05;10.80;;;7.90;;
16254;SDS011;8235;52.198;9.904;2022-12-20T05:30:31;10.53;;;7.00;;
16254;SDS011;8235;52.198;9.904;2022-12-20T05:32:58;12.43;;;7.50;;
16254;SDS011;8235;52.198;9.904;2022-12-20T05:35:26;11.43;;;7.80;;
16254;SDS011;8235;52.198;9.904;2022-12-20T05:37:52;9.40;;;7.63;;
16254;SDS011;8235;52.198;9.904;2022-12-20T05:40:19;12.93;;;7.87;;
16254;SDS011;8235;52.198;9.904;2022-12-20T05:42:46;10.57;;;7.93;;
16254;SDS011;8235;52.198;9.904;2022-12-20T05:45:12;10.10;;;7.57;;
16254;SDS011;8235;52.198;9.904;2022-12-20T05:47:39;12.57;;;8.57;;
16254;SDS011;8235;52.198;9.904;2022-12-20T05:50:06;11.07;;;7.83;;
16254;SDS011;8235;52.198;9.904;2022-12-20T05:52:35;11.10;;;8.30;;
16254;SDS011;8235;52.198;9.904;2022-12-20T05:55:01;10.47;;;7.73;;
16254;SDS011;8235;52.198;9.904;2022-12-20T05:57:28;15.47;;;7.77;;
16254;SDS011;8235;52.198;9.904;2022-12-20T05:59:55;12.10;;;8.23;;
16254;SDS011;8235;52.198;9.904;2022-12-20T06:02:22;11.23;;;7.97;;
16254;SDS011;8235;52.198;9.904;2022-12-20T06:04:48;11.40;;;8.63;;
16254;SDS011;8235;52.198;9.904;2022-12-20T06:07:14;10.10;;;8.10;;
16254;SDS011;8235;52.198;9.904;2022-12-20T06:09:42;13.03;;;8.37;;
16254;SDS011;8235;52.198;9.904;2022-12-20T06:12:09;16.30;;;8.33;;
16254;SDS011;8235;52.198;9.904;2022-12-20T06:14:35;12.13;;;8.70;;
16254;SDS011;8235;52.198;9.904;2022-12-20T06:17:02;13.67;;;9.50;;
16254;SDS011;8235;52.198;9.904;2022-12-20T06:19:28;12.47;;;8.77;;
16254;SDS011;8235;52.198;9.904;2022-12-20T06:21:55;14.43;;;9.27;;
16254;SDS011;8235;52.198;9.904;2022-12-20T06:24:21;10.53;;;7.90;;
16254;SDS011;8235;52.198;9.904;2022-12-20T06:26:50;12.40;;;8.30;;
16254;SDS011;8235;52.198;9.904;2022-12-20T06:29:17;11.17;;;9.07;;
16254;SDS011;8235;52.198;9.904;2022-12-20T06:31:44;12.23;;;8.53;;
16254;SDS011;8235;52.198;9.904;2022-12-20T06:34:11;12.27;;;8.37;;
16254;SDS011;8235;52.198;9.904;2022-12-20T06:36:38;13.20;;;9.00;;
16254;SDS011;8235;52.198;9.904;2022-12-20T06:39:04;12.80;;;8.40;;
16254;SDS011;8235;52.198;9.904;2022-12-20T06:41:32;11.07;;;8.60;;
16254;SDS011;8235;52.198;9.904;2022-12-20T06:44:00;11.40;;;8.30;;
16254;SDS011;8235;52.198;9.904;2022-12-20T06:46:27;11.80;;;8.67;;
16254;SDS011;8235;52.198;9.904;2022-12-20T06:48:54;14.63;;;8.37;;
16254;SDS011;8235;52.198;9.904;2022-12-20T06:51:21;13.43;;;9.23;;
16254;SDS011;8235;52.198;9.904;2022-12-20T06:53:47;13.97;;;9.37;;
16254;SDS011;8235;52.198;9.904;2022-12-20T06:56:14;13.83;;;8.93;;
16254;SDS011;8235;52.198;9.904;2022-12-20T06:58:41;11.20;;;7.93;;
16254;SDS011;8235;52.198;9.904;2022-12-20T07:01:11;9.50;;;8.30;;
16254;SDS011;8235;52.198;9.904;2022-12-20T07:03:38;13.43;;;8.73;;
16254;SDS011;8235;52.198;9.904;2022-12-20T07:06:05;12.07;;;8.47;;
16254;SDS011;8235;52.198;9.904;2022-12-20T07:08:31;12.23;;;8.90;;
16254;SDS011;8235;52.198;9.904;2022-12-20T07:11:01;13.47;;;9.03;;
16254;SDS011;8235;52.198;9.904;2022-12-20T07:13:29;11.80;;;8.43;;
16254;SDS011;8235;52.198;9.904;2022-12-20T07:15:56;11.13;;;8.77;;
16254;SDS011;8235;52.198;9.904;2022-12-20T07:18:25;12.03;;;8.63;;
16254;SDS011;8235;52.198;9.904;2022-12-20T07:20:51;12.87;;;9.20;;
16254;SDS011;8235;52.198;9.904;2022-12-20T07:23:18;11.10;;;8.67;;
16254;SDS011;8235;52.198;9.904;2022-12-20T07:25:51;15.47;;;9.63;;
16254;SDS011;8235;52.198;9.904;2022-12-20T07:28:18;13.47;;;8.90;;
16254;SDS011;8235;52.198;9.904;2022-12-20T07:30:44;12.47;;;8.67;;
16254;SDS011;8235;52.198;9.904;2022-12-20T07:33:11;11.77;;;8.57;;
16254;SDS011;8235;52.198;9.904;2022-12-20T07:35:39;11.50;;;8.33;;
16254;SDS011;8235;52.198;9.904;2022-12-20T07:38:06;12.53;;;8.20;;
16254;SDS011;8235;52.198;9.904;2022-12-20T07:40:32;12.47;;;9.07;;
16254;SDS011;8235;52.198;9.904;2022-12-20T07:42:59;10.63;;;8.00;;
16254;SDS011;8235;52.198;9.904;2022-12-20T07:45:25;12.63;;;7.47;;
16254;SDS011;8235;52.198;9.904;2022-12-20T07:47:52;12.97;;;9.00;;
16254;SDS011;8235;52.198;9.904;2022-12-20T07:50:18;11.43;;;8.90;;
16254;SDS011;8235;52.198;9.904;2022-12-20T07:52:46;10.30;;;8.20;;
16254;SDS011;8235;52.198;9.904;2022-12-20T07:55:17;10.83;;;8.33;;
16254;SDS011;8235;52.198;9.904;2022-12-20T07:57:45;11.40;;;7.50;;
16254;SDS011;8235;52.198;9.904;2022-12-20T08:00:16;11.20;;;8.80;;
16254;SDS011;8235;52.198;9.904;2022-12-20T08:02:45;11.10;;;8.30;;
16254;SDS011;8235;52.198;9.904;2022-12-20T08:05:14;11.20;;;7.00;;
16254;SDS011;8235;52.198;9.904;2022-12-20T08:07:41;14.23;;;9.20;;
16254;SDS011;8235;52.198;9.904;2022-12-20T08:10:12;10.10;;;8.53;;
16254;SDS011;8235;52.198;9.904;2022-12-20T08:12:41;11.37;;;8.23;;
16254;SDS011;8235;52.198;9.904;2022-12-20T08:15:10;12.57;;;8.40;;
16254;SDS011;8235;52.198;9.904;2022-12-20T08:17:37;13.43;;;8.20;;
16254;SDS011;8235;52.198;9.904;2022-12-20T08:20:04;10.20;;;7.13;;
16254;SDS011;8235;52.198;9.904;2022-12-20T08:22:32;9.50;;;7.10;;
16254;SDS011;8235;52.198;9.904;2022-12-20T08:24:59;10.17;;;7.33;;
16254;SDS011;8235;52.198;9.904;2022-12-20T08:27:27;9.23;;;6.80;;
16254;SDS011;8235;52.198;9.904;2022-12-20T08:29:53;10.60;;;7.03;;
16254;SDS011;8235;52.198;9.904;2022-12-20T08:32:20;9.03;;;6.43;;
16254;SDS011;8235;52.198;9.904;2022-12-20T08:34:46;8.73;;;7.27;;
16254;SDS011;8235;52.198;9.904;2022-12-20T08:37:14;7.87;;;5.97;;
16254;SDS011;8235;52.198;9.904;2022-12-20T08:39:41;12.23;;;7.30;;
16254;SDS011;8235;52.198;9.904;2022-12-20T08:42:07;9.17;;;6.33;;
16254;SDS011;8235;52.198;9.904;2022-12-20T08:44:35;11.10;;;6.43;;
16254;SDS011;8235;52.198;9.904;2022-12-20T08:47:03;11.90;;;7.20;;
16254;SDS011;8235;52.198;9.904;2022-12-20T08:49:30;9.23;;;6.60;;
16254;SDS011;8235;52.198;9.904;2022-12-20T08:51:57;10.17;;;6.37;;
16254;SDS011;8235;52.198;9.904;2022-12-20T08:54:23;9.20;;;6.30;;
16254;SDS011;8235;52.198;9.904;2022-12-20T08:56:50;11.17;;;6.67;;
16254;SDS011;8235;52.198;9.904;2022-12-20T08:59:16;8.60;;;6.47;;
16254;SDS011;8235;52.198;9.904;2022-12-20T09:01:44;7.50;;;6.37;;
16254;SDS011;8235;52.198;9.904;2022-12-20T09:04:11;7.80;;;5.97;;
16254;SDS011;8235;52.198;9.904;2022-12-20T09:06:39;8.20;;;6.33;;
16254;SDS011;8235;52.198;9.904;2022-12-20T09:09:06;7.77;;;6.13;;
16254;SDS011;8235;52.198;9.904;2022-12-20T09:11:32;8.13;;;5.20;;
16254;SDS011;8235;52.198;9.904;2022-12-20T09:13:59;7.43;;;5.70;;
16254;SDS011;8235;52.198;9.904;2022-12-20T09:16:26;8.10;;;5.60;;
16254;SDS011;8235;52.198;9.904;2022-12-20T09:18:58;7.33;;;5.90;;
16254;SDS011;8235;52.198;9.904;2022-12-20T09:21:26;7.47;;;5.40;;
16254;SDS011;8235;52.198;9.904;2022-12-20T09:23:53;9.03;;;5.70;;
16254;SDS011;8235;52.198;9.904;2022-12-20T09:26:24;9.67;;;5.90;;
16254;SDS011;8235;52.198;9.904;2022-12-20T09:28:51;7.40;;;5.83;;
16254;SDS011;8235;52.198;9.904;2022-12-20T09:31:18;8.40;;;5.20;;
16254;SDS011;8235;52.198;9.904;2022-12-20T09:33:47;7.43;;;5.13;;
16254;SDS011;8235;52.198;9.904;2022-12-20T09:36:16;6.63;;;5.20;;
16254;SDS011;8235;52.198;9.904;2022-12-20T09:38:48;7.63;;;4.73;;
16254;SDS011;8235;52.198;9.904;2022-12-20T09:41:18;7.03;;;5.23;;
16254;SDS011;8235;52.198;9.904;2022-12-20T09:43:51;7.23;;;5.80;;
16254;SDS011;8235;52.198;9.904;2022-12-20T09:46:18;7.23;;;4.97;;
16254;SDS011;8235;52.198;9.904;2022-12-20T09:48:45;7.90;;;4.93;;
16254;SDS011;8235;52.198;9.904;2022-12-20T09:51:21;8.07;;;4.87;;
16254;SDS011;8235;52.198;9.904;2022-12-20T09:54:02;6.57;;;4.63;;
16254;SDS011;8235;52.198;9.904;2022-12-20T09:56:36;6.70;;;4.50;;
16254;SDS011;8235;52.198;9.904;2022-12-20T09:59:09;6.97;;;5.30;;
16254;SDS011;8235;52.198;9.904;2022-12-20T10:01:37;6.00;;;4.53;;
16254;SDS011;8235;52.198;9.904;2022-12-20T10:04:11;7.00;;;4.57;;
16254;SDS011;8235;52.198;9.904;2022-12-20T10:06:46;6.60;;;4.20;;
16254;SDS011;8235;52.198;9.904;2022-12-20T10:09:29;7.23;;;4.40;;
16254;SDS011;8235;52.198;9.904;2022-12-20T10:12:10;7.37;;;4.37;;
16254;SDS011;8235;52.198;9.904;2022-12-20T10:14:50;7.70;;;4.60;;
16254;SDS011;8235;52.198;9.904;2022-12-20T10:17:32;6.33;;;4.17;;
16254;SDS011;8235;52.198;9.904;2022-12-20T10:20:18;9.97;;;4.90;;
16254;SDS011;8235;52.198;9.904;2022-12-20T10:22:55;5.57;;;4.50;;
16254;SDS011;8235;52.198;9.904;2022-12-20T10:25:28;6.83;;;4.50;;
16254;SDS011;8235;52.198;9.904;2022-12-20T10:27:56;6.03;;;3.77;;
16254;SDS011;8235;52.198;9.904;2022-12-20T10:30:26;6.90;;;4.77;;
16254;SDS011;8235;52.198;9.904;2022-12-20T10:32:55;7.13;;;4.57;;
16254;SDS011;8235;52.198;9.904;2022-12-20T10:35:24;5.73;;;4.03;;
16254;SDS011;8235;52.198;9.904;2022-12-20T10:37:58;6.27;;;4.27;;
16254;SDS011;8235;52.198;9.904;2022-12-20T10:40:28;6.40;;;3.93;;
16254;SDS011;8235;52.198;9.904;2022-12-20T10:42:56;6.00;;;4.50;;
16254;SDS011;8235;52.198;9.904;2022-12-20T10:45:25;6.13;;;4.20;;
16254;SDS011;8235;52.198;9.904;2022-12-20T10:47:58;8.27;;;4.10;;
16254;SDS011;8235;52.198;9.904;2022-12-20T10:50:26;5.17;;;4.03;;
16254;SDS011;8235;52.198;9.904;2022-12-20T10:55:47;6.47;;;3.80;;
16254;SDS011;8235;52.198;9.904;2022-12-20T10:58:14;5.43;;;4.07;;
16254;SDS011;8235;52.198;9.904;2022-12-20T11:00:43;5.07;;;3.90;;
16254;SDS011;8235;52.198;9.904;2022-12-20T11:03:12;4.90;;;4.13;;
16254;SDS011;8235;52.198;9.904;2022-12-20T11:05:42;6.30;;;3.97;;
16254;SDS011;8235;52.198;9.904;2022-12-20T11:08:21;4.97;;;3.70;;
16254;SDS011;8235;52.198;9.904;2022-12-20T11:10:50;5.10;;;3.53;;
16254;SDS011;8235;52.198;9.904;2022-12-20T11:13:35;6.33;;;4.27;;
16254;SDS011;8235;52.198;9.904;2022-12-20T11:16:02;4.90;;;3.90;;
16254;SDS011;8235;52.198;9.904;2022-12-20T11:18:32;6.40;;;4.00;;
16254;SDS011;8235;52.198;9.904;2022-12-20T11:21:10;6.90;;;3.90;;
16254;SDS011;8235;52.198;9.904;2022-12-20T11:23:46;5.60;;;3.53;;
16254;SDS011;8235;52.198;9.904;2022-12-20T11:26:26;5.20;;;3.97;;
16254;SDS011;8235;52.198;9.904;2022-12-20T11:29:02;6.57;;;4.27;;
16254;SDS011;8235;52.198;9.904;2022-12-20T11:31:43;5.97;;;3.90;;
16254;SDS011;8235;52.198;9.904;2022-12-20T11:34:18;4.77;;;3.70;;
16254;SDS011;8235;52.198;9.904;2022-12-20T11:36:59;6.80;;;3.90;;
16254;SDS011;8235;52.198;9.904;2022-12-20T11:39:37;5.43;;;4.03;;
16254;SDS011;8235;52.198;9.904;2022-12-20T11:42:12;4.93;;;3.70;;
16254;SDS011;8235;52.198;9.904;2022-12-20T11:44:50;5.93;;;4.20;;
16254;SDS011;8235;52.198;9.904;2022-12-20T11:47:26;3.90;;;3.30;;
16254;SDS011;8235;52.198;9.904;2022-12-20T11:50:24;5.77;;;3.63;;
16254;SDS011;8235;52.198;9.904;2022-12-20T11:53:03;9.83;;;3.87;;
16254;SDS011;8235;52.198;9.904;2022-12-20T11:55:35;12.07;;;5.23;;
16254;SDS011;8235;52.198;9.904;2022-12-20T11:58:13;5.60;;;3.43;;
16254;SDS011;8235;52.198;9.904;2022-12-20T12:00:46;5.47;;;3.73;;
16254;SDS011;8235;52.198;9.904;2022-12-20T12:03:20;6.43;;;3.80;;
16254;SDS011;8235;52.198;9.904;2022-12-20T12:05:55;4.33;;;3.33;;
16254;SDS011;8235;52.198;9.904;2022-12-20T12:08:27;4.20;;;3.53;;
16254;SDS011;8235;52.198;9.904;2022-12-20T12:11:03;5.03;;;3.93;;
16254;SDS011;8235;52.198;9.904;2022-12-20T12:13:34;6.80;;;4.77;;
16254;SDS011;8235;52.198;9.904;2022-12-20T12:16:05;4.17;;;3.03;;
16254;SDS011;8235;52.198;9.904;2022-12-20T12:18:36;4.60;;;3.03;;
16254;SDS011;8235;52.198;9.904;2022-12-20T12:21:05;4.10;;;3.40;;
16254;SDS011;8235;52.198;9.904;2022-12-20T12:23:40;4.53;;;2.93;;
16254;SDS011;8235;52.198;9.904;2022-12-20T12:26:16;4.67;;;3.60;;
16254;SDS011;8235;52.198;9.904;2022-12-20T12:28:46;4.03;;;3.30;;
16254;SDS011;8235;52.198;9.904;2022-12-20T12:31:20;4.13;;;3.37;;
16254;SDS011;8235;52.198;9.904;2022-12-20T12:33:55;3.90;;;3.50;;
16254;SDS011;8235;52.198;9.904;2022-12-20T12:36:46;4.93;;;3.23;;
16254;SDS011;8235;52.198;9.904;2022-12-20T12:39:43;4.37;;;3.20;;
16254;SDS011;8235;52.198;9.904;2022-12-20T12:45:43;5.77;;;3.53;;
16254;SDS011;8235;52.198;9.904;2022-12-20T12:48:18;4.57;;;3.20;;
16254;SDS011;8235;52.198;9.904;2022-12-20T12:50:49;4.50;;;3.30;;
16254;SDS011;8235;52.198;9.904;2022-12-20T12:53:23;4.63;;;2.80;;
16254;SDS011;8235;52.198;9.904;2022-12-20T12:56:28;4.37;;;3.30;;
16254;SDS011;8235;52.198;9.904;2022-12-20T12:59:09;4.77;;;3.13;;
16254;SDS011;8235;52.198;9.904;2022-12-20T13:01:49;4.80;;;3.13;;
16254;SDS011;8235;52.198;9.904;2022-12-20T13:04:27;4.83;;;2.80;;
16254;SDS011;8235;52.198;9.904;2022-12-20T13:10:01;3.90;;;2.77;;
16254;SDS011;8235;52.198;9.904;2022-12-20T13:12:56;5.13;;;2.80;;
16254;SDS011;8235;52.198;9.904;2022-12-20T13:18:21;3.83;;;3.37;;
16254;SDS011;8235;52.198;9.904;2022-12-20T13:23:53;4.40;;;2.90;;
16254;SDS011;8235;52.198;9.904;2022-12-20T13:27:17;5.13;;;2.73;;
16254;SDS011;8235;52.198;9.904;2022-12-20T13:32:56;4.67;;;3.23;;
16254;SDS011;8235;52.198;9.904;2022-12-20T13:35:29;6.07;;;4.00;;
16254;SDS011;8235;52.198;9.904;2022-12-20T13:37:58;4.03;;;2.90;;
16254;SDS011;8235;52.198;9.904;2022-12-20T13:40:34;7.60;;;3.90;;
16254;SDS011;8235;52.198;9.904;2022-12-20T13:43:06;6.43;;;4.23;;
16254;SDS011;8235;52.198;9.904;2022-12-20T13:45:42;6.10;;;3.97;;
16254;SDS011;8235;52.198;9.904;2022-12-20T13:48:13;4.20;;;2.90;;
16254;SDS011;8235;52.198;9.904;2022-12-20T13:50:51;4.40;;;2.97;;
16254;SDS011;8235;52.198;9.904;2022-12-20T13:53:20;3.70;;;2.90;;
16254;SDS011;8235;52.198;9.904;2022-12-20T13:55:48;5.83;;;3.20;;
16254;SDS011;8235;52.198;9.904;2022-12-20T13:58:16;3.60;;;2.70;;
16254;SDS011;8235;52.198;9.904;2022-12-20T14:00:45;3.70;;;2.77;;
16254;SDS011;8235;52.198;9.904;2022-12-20T14:03:18;3.87;;;2.77;;
16254;SDS011;8235;52.198;9.904;2022-12-20T14:05:47;3.27;;;2.40;;
16254;SDS011;8235;52.198;9.904;2022-12-20T14:08:15;4.33;;;3.07;;
16254;SDS011;8235;52.198;9.904;2022-12-20T14:10:45;4.33;;;2.97;;
16254;SDS011;8235;52.198;9.904;2022-12-20T14:13:16;4.03;;;2.60;;
16254;SDS011;8235;52.198;9.904;2022-12-20T14:15:45;3.73;;;2.80;;
16254;SDS011;8235;52.198;9.904;2022-12-20T14:18:15;3.63;;;2.27;;
16254;SDS011;8235;52.198;9.904;2022-12-20T14:20:45;3.20;;;2.40;;
16254;SDS011;8235;52.198;9.904;2022-12-20T14:23:15;4.33;;;2.47;;
16254;SDS011;8235;52.198;9.904;2022-12-20T14:25:47;5.30;;;2.50;;
16254;SDS011;8235;52.198;9.904;2022-12-20T14:28:21;3.87;;;2.23;;
16254;SDS011;8235;52.198;9.904;2022-12-20T14:30:58;3.80;;;2.60;;
16254;SDS011;8235;52.198;9.904;2022-12-20T14:33:33;4.73;;;3.00;;
16254;SDS011;8235;52.198;9.904;2022-12-20T14:36:08;4.27;;;2.57;;
16254;SDS011;8235;52.198;9.904;2022-12-20T14:38:43;4.27;;;2.67;;
16254;SDS011;8235;52.198;9.904;2022-12-20T14:43:56;3.40;;;2.30;;
16254;SDS011;8235;52.198;9.904;2022-12-20T14:46:24;5.63;;;3.30;;
16254;SDS011;8235;52.198;9.904;2022-12-20T14:49:04;5.83;;;3.20;;
16254;SDS011;8235;52.198;9.904;2022-12-20T14:51:38;4.43;;;2.97;;
16254;SDS011;8235;52.198;9.904;2022-12-20T14:54:05;5.27;;;3.30;;
16254;SDS011;8235;52.198;9.904;2022-12-20T14:56:36;4.83;;;2.93;;
16254;SDS011;8235;52.198;9.904;2022-12-20T14:59:10;4.77;;;3.33;;
16254;SDS011;8235;52.198;9.904;2022-12-20T15:01:42;8.60;;;4.90;;
16254;SDS011;8235;52.198;9.904;2022-12-20T15:04:20;5.00;;;3.53;;
16254;SDS011;8235;52.198;9.904;2022-12-20T15:06:49;5.33;;;3.33;;
16254;SDS011;8235;52.198;9.904;2022-12-20T15:09:16;9.27;;;4.60;;
16254;SDS011;8235;52.198;9.904;2022-12-20T15:11:43;6.10;;;3.60;;
16254;SDS011;8235;52.198;9.904;2022-12-20T15:14:17;4.57;;;3.47;;
16254;SDS011;8235;52.198;9.904;2022-12-20T15:16:48;3.13;;;2.67;;
16254;SDS011;8235;52.198;9.904;2022-12-20T15:19:14;6.33;;;3.80;;
16254;SDS011;8235;52.198;9.904;2022-12-20T15:21:42;7.43;;;4.27;;
16254;SDS011;8235;52.198;9.904;2022-12-20T15:24:11;8.37;;;4.73;;
16254;SDS011;8235;52.198;9.904;2022-12-20T15:26:39;4.53;;;2.90;;
16254;SDS011;8235;52.198;9.904;2022-12-20T15:29:06;4.50;;;2.80;;
16254;SDS011;8235;52.198;9.904;2022-12-20T15:31:37;3.70;;;3.07;;